createdAt,value
2019-02-21T00:00:24.173Z,14.70
2019-02-21T00:05:20.130Z,17.00
2019-02-21T00:10:21.488Z,16.87
2019-02-21T00:15:22.852Z,14.87
2019-02-21T00:20:24.190Z,17.07
2019-02-21T00:25:25.574Z,17.07
2019-02-21T00:30:34.925Z,16.23
2019-02-21T00:35:30.155Z,14.10
2019-02-21T00:40:31.479Z,15.37
2019-02-21T00:45:33.912Z,18.37
2019-02-21T00:50:35.340Z,18.30
2019-02-21T00:55:36.730Z,17.30
2019-02-21T01:00:46.101Z,17.60
2019-02-21T01:05:41.407Z,19.90
2019-02-21T01:10:42.715Z,22.03
2019-02-21T01:15:44.358Z,18.97
2019-02-21T01:20:45.775Z,20.33
2019-02-21T01:25:47.275Z,21.10
2019-02-21T01:30:56.755Z,19.27
2019-02-21T01:35:51.947Z,19.73
2019-02-21T01:40:53.309Z,21.77
2019-02-21T01:45:54.799Z,21.73
2019-02-21T01:50:56.234Z,22.20
2019-02-21T01:55:57.579Z,20.83
2019-02-21T02:01:07.914Z,24.73
2019-02-21T02:06:02.640Z,24.40
2019-02-21T02:11:03.988Z,25.03
2019-02-21T02:16:05.392Z,25.17
2019-02-21T02:21:06.911Z,25.97
2019-02-21T02:26:08.339Z,28.90
2019-02-21T02:31:21.932Z,29.53
2019-02-21T02:36:13.338Z,30.07
2019-02-21T02:41:14.887Z,29.17
2019-02-21T02:46:16.257Z,30.23
2019-02-21T02:51:17.629Z,29.77
2019-02-21T02:56:18.965Z,32.43
2019-02-21T03:01:20.391Z,30.60
2019-02-21T03:06:21.790Z,32.27
2019-02-21T03:11:23.187Z,33.73
2019-02-21T03:16:24.515Z,32.37
2019-02-21T03:21:25.907Z,32.83
2019-02-21T03:26:27.247Z,35.33
2019-02-21T03:31:28.645Z,34.07
2019-02-21T03:36:29.979Z,32.27
2019-02-21T03:41:31.471Z,32.27
2019-02-21T03:46:32.808Z,34.73
2019-02-21T03:51:34.234Z,31.77
2019-02-21T03:56:35.648Z,31.60
2019-02-21T04:01:37.025Z,33.30
2019-02-21T04:06:38.464Z,35.80
2019-02-21T04:11:39.819Z,31.63
2019-02-21T04:16:41.196Z,29.77
2019-02-21T04:21:42.586Z,31.00
2019-02-21T04:26:43.922Z,34.10
2019-02-21T04:31:45.322Z,31.47
2019-02-21T04:36:46.647Z,31.40
2019-02-21T04:41:48.043Z,37.33
2019-02-21T04:46:49.405Z,30.07
2019-02-21T04:51:50.772Z,31.13
2019-02-21T04:56:52.210Z,34.40
2019-02-21T05:01:53.598Z,33.83
2019-02-21T05:06:54.934Z,33.13
2019-02-21T05:11:56.351Z,33.27
2019-02-21T05:17:00.524Z,34.87
2019-02-21T05:22:01.102Z,31.20
2019-02-21T05:27:06.960Z,33.53
2019-02-21T05:32:25.311Z,33.70
2019-02-21T05:37:31.278Z,34.67
2019-02-21T05:42:46.568Z,31.40
2019-02-21T05:47:52.406Z,31.30
2019-02-21T05:53:13.526Z,31.30
2019-02-21T05:58:25.428Z,29.93
2019-02-21T06:03:37.602Z,28.33
2019-02-21T06:08:58.863Z,28.20
2019-02-21T06:14:02.225Z,27.13
2019-02-21T06:19:05.529Z,25.00
2019-02-21T06:24:11.378Z,26.40
2019-02-21T06:29:14.708Z,24.57
2019-02-21T06:34:16.096Z,27.93
2019-02-21T06:39:17.587Z,26.10
2019-02-21T06:44:18.909Z,24.83
2019-02-21T06:49:20.410Z,23.67
2019-02-21T06:54:22.547Z,23.67
2019-02-21T06:59:25.102Z,28.20
2019-02-21T07:04:26.422Z,24.30
2019-02-21T07:09:27.826Z,23.77
2019-02-21T07:14:29.260Z,24.27
2019-02-21T07:19:30.595Z,23.60
2019-02-21T07:24:32.616Z,24.67
2019-02-21T07:29:33.966Z,23.83
2019-02-21T07:34:35.388Z,25.00
2019-02-21T07:39:36.797Z,25.40
2019-02-21T07:44:38.194Z,25.03
2019-02-21T07:49:39.514Z,24.47
2019-02-21T07:54:40.902Z,30.23
2019-02-21T07:59:42.239Z,26.13
2019-02-21T08:04:43.635Z,25.67
2019-02-21T08:09:44.983Z,29.07
2019-02-21T08:14:46.410Z,29.23
2019-02-21T08:19:47.819Z,25.47
2019-02-21T08:24:49.205Z,27.97
2019-02-21T08:29:50.531Z,24.40
2019-02-21T08:34:52.452Z,28.80
2019-02-21T08:39:53.870Z,28.63
2019-02-21T08:44:55.270Z,26.47
2019-02-21T08:49:56.603Z,30.67
2019-02-21T08:55:00.512Z,28.73
2019-02-21T09:00:03.290Z,33.80
2019-02-21T09:05:09.429Z,29.67
2019-02-21T09:10:11.788Z,28.97
2019-02-21T09:15:15.493Z,29.30
2019-02-21T09:20:16.971Z,28.43
2019-02-21T09:25:18.369Z,27.10
2019-02-21T09:30:19.735Z,30.67
2019-02-21T09:35:21.096Z,28.20
2019-02-21T09:40:22.453Z,28.70
2019-02-21T09:45:23.888Z,25.93
2019-02-21T09:50:25.325Z,29.37
2019-02-21T09:55:29.716Z,29.07
2019-02-21T10:00:31.088Z,28.80
2019-02-21T10:05:32.415Z,27.17
2019-02-21T10:10:33.808Z,23.30
2019-02-21T10:15:35.188Z,22.63
2019-02-21T10:20:36.622Z,24.33
2019-02-21T10:25:37.998Z,25.73
2019-02-21T10:30:39.405Z,24.40
2019-02-21T10:35:40.809Z,21.97
2019-02-21T10:40:42.288Z,24.90
2019-02-21T10:45:47.902Z,21.00
2019-02-21T10:50:46.987Z,19.93
2019-02-21T10:55:48.413Z,19.47
2019-02-21T11:00:49.906Z,17.77
2019-02-21T11:05:51.243Z,21.80
2019-02-21T11:10:53.663Z,21.67
2019-02-21T11:15:55.002Z,16.77
2019-02-21T11:20:56.395Z,18.87
2019-02-21T11:25:57.727Z,18.93
2019-02-21T11:30:59.246Z,17.23
2019-02-21T11:36:00.658Z,15.77
2019-02-21T11:41:02.059Z,17.40
2019-02-21T11:46:04.894Z,18.10
2019-02-21T11:51:07.497Z,17.90
2019-02-21T11:56:09.309Z,17.27
2019-02-21T12:01:10.786Z,18.33
2019-02-21T12:06:12.123Z,15.13
2019-02-21T12:11:13.512Z,17.73
2019-02-21T12:16:14.847Z,16.27
2019-02-21T12:21:16.368Z,19.00
2019-02-21T12:26:17.708Z,15.07
2019-02-21T12:31:19.073Z,17.70
2019-02-21T12:36:20.407Z,18.00
2019-02-21T12:41:21.795Z,18.83
2019-02-21T12:46:23.137Z,19.97
2019-02-21T12:51:24.526Z,21.60
2019-02-21T12:56:25.862Z,18.20
2019-02-21T13:01:27.396Z,17.30
2019-02-21T13:06:28.902Z,17.93
2019-02-21T13:11:30.292Z,14.60
2019-02-21T13:16:31.628Z,19.83
2019-02-21T13:21:33.047Z,15.30
2019-02-21T13:26:34.457Z,24.27
2019-02-21T13:31:35.859Z,16.00
2019-02-21T13:36:37.185Z,16.13
2019-02-21T13:41:38.578Z,18.37
2019-02-21T13:46:41.309Z,19.10
2019-02-21T13:51:43.264Z,22.67
2019-02-21T13:56:44.642Z,19.57
2019-02-21T14:01:46.170Z,17.50
2019-02-21T14:06:47.566Z,19.37
2019-02-21T14:11:48.986Z,18.43
2019-02-21T14:16:50.413Z,17.67
2019-02-21T14:21:51.818Z,19.87
2019-02-21T14:26:53.211Z,18.57
2019-02-21T14:31:54.543Z,20.30
2019-02-21T14:36:55.935Z,18.07
2019-02-21T14:41:57.271Z,22.43
2019-02-21T14:46:58.665Z,18.10
2019-02-21T14:52:01.913Z,19.73
2019-02-21T14:57:03.523Z,20.37
2019-02-21T15:02:06.187Z,21.37
2019-02-21T15:07:07.606Z,22.83
2019-02-21T15:12:11.613Z,21.10
2019-02-21T15:17:12.303Z,19.37
2019-02-21T15:22:14.087Z,23.03
2019-02-21T15:27:15.516Z,21.03
2019-02-21T15:32:16.855Z,21.17
2019-02-21T15:37:20.388Z,22.50
2019-02-21T15:42:21.756Z,23.20
2019-02-21T15:47:24.175Z,21.13
2019-02-21T15:52:25.514Z,22.73
2019-02-21T15:57:26.943Z,21.77
2019-02-21T16:02:29.290Z,22.50
2019-02-21T16:07:30.900Z,23.07
2019-02-21T16:12:32.505Z,25.60
2019-02-21T16:17:37.194Z,22.07
2019-02-21T16:22:37.572Z,20.90
2019-02-21T16:27:38.939Z,25.13
2019-02-21T16:32:40.334Z,20.77
2019-02-21T16:37:41.891Z,27.57
2019-02-21T16:42:43.324Z,22.90
2019-02-21T16:47:44.711Z,24.87
2019-02-21T16:52:46.046Z,21.80
2019-02-21T16:57:47.457Z,23.00
2019-02-21T17:02:49.104Z,22.90
2019-02-21T17:07:50.451Z,21.50
2019-02-21T17:12:55.140Z,26.37
2019-02-21T17:17:56.901Z,20.27
2019-02-21T17:22:58.324Z,19.23
2019-02-21T17:27:59.727Z,20.10
2019-02-21T17:33:01.060Z,26.73
2019-02-21T17:38:02.538Z,27.27
2019-02-21T17:43:04.019Z,25.90
2019-02-21T17:48:05.355Z,23.93
2019-02-21T17:53:06.743Z,23.23
2019-02-21T17:58:08.075Z,21.90
2019-02-21T18:03:09.474Z,25.80
2019-02-21T18:08:10.911Z,23.20
2019-02-21T18:13:12.298Z,24.03
2019-02-21T18:18:13.771Z,23.93
2019-02-21T18:23:15.134Z,25.30
2019-02-21T18:28:17.532Z,24.13
2019-02-21T18:33:18.955Z,28.30
2019-02-21T18:38:20.353Z,25.23
2019-02-21T18:43:21.787Z,23.23
2019-02-21T18:48:23.233Z,22.83
2019-02-21T18:53:25.674Z,26.77
2019-02-21T18:58:27.126Z,25.73
2019-02-21T19:03:30.872Z,23.47
2019-02-21T19:08:33.337Z,27.93
2019-02-21T19:13:34.896Z,22.30
2019-02-21T19:18:36.746Z,24.27
2019-02-21T19:23:38.520Z,26.03
2019-02-21T19:28:39.978Z,21.37
2019-02-21T19:33:41.503Z,25.93
2019-02-21T19:38:42.838Z,27.60
2019-02-21T19:43:44.228Z,22.73
2019-02-21T19:48:47.502Z,25.53
2019-02-21T19:53:50.069Z,20.90
2019-02-21T19:58:52.129Z,24.13
2019-02-21T20:03:53.594Z,22.50
2019-02-21T20:08:55.658Z,23.43
2019-02-21T20:13:57.110Z,20.80
2019-02-21T20:18:58.554Z,22.03
2019-02-21T20:24:00.033Z,20.23
2019-02-21T20:29:02.609Z,21.17
2019-02-21T20:34:04.473Z,20.03
2019-02-21T20:39:06.471Z,24.00
2019-02-21T20:44:07.977Z,15.00
2019-02-21T20:49:09.499Z,17.87
2019-02-21T20:54:12.891Z,16.77
2019-02-21T20:59:14.232Z,18.63
2019-02-21T21:04:15.643Z,19.53
2019-02-21T21:09:17.041Z,19.20
2019-02-21T21:14:18.471Z,23.57
2019-02-21T21:19:19.862Z,21.90
2019-02-21T21:24:21.205Z,22.20
2019-02-21T21:29:22.595Z,26.63
2019-02-21T21:34:23.930Z,26.57
2019-02-21T21:39:25.346Z,28.00
2019-02-21T21:44:26.853Z,23.17
2019-02-21T21:49:28.243Z,28.27
2019-02-21T21:54:29.642Z,22.73
2019-02-21T21:59:31.056Z,23.93
2019-02-21T22:04:32.488Z,26.90
2019-02-21T22:09:33.886Z,25.23
2019-02-21T22:14:35.282Z,29.00
2019-02-21T22:19:36.721Z,26.20
2019-02-21T22:24:38.102Z,25.00
2019-02-21T22:29:39.442Z,25.17
2019-02-21T22:34:43.018Z,25.97
2019-02-21T22:39:46.610Z,26.60
2019-02-21T22:44:48.715Z,26.07
2019-02-21T22:49:52.538Z,23.50
2019-02-21T22:54:54.602Z,24.57
2019-02-21T22:59:56.319Z,26.33
2019-02-21T23:05:15.725Z,27.97
2019-02-21T23:10:17.079Z,30.00
2019-02-21T23:15:18.473Z,23.70
2019-02-21T23:20:19.918Z,26.47
2019-02-21T23:25:21.306Z,25.80
2019-02-21T23:30:22.638Z,24.67
2019-02-21T23:35:24.135Z,28.30
2019-02-21T23:40:25.480Z,24.10
2019-02-21T23:45:26.867Z,25.23
2019-02-21T23:50:28.199Z,26.20
2019-02-21T23:55:29.665Z,24.83
